createdAt,value
2023-03-06T00:00:22.715Z,0
2023-03-06T00:01:04.136Z,0
2023-03-06T00:01:44.643Z,0
2023-03-06T00:03:46.941Z,0
2023-03-06T00:04:27.451Z,0
2023-03-06T00:05:07.995Z,0
2023-03-06T00:05:48.523Z,0
2023-03-06T00:06:29.624Z,0
2023-03-06T00:07:10.145Z,0
2023-03-06T00:07:50.651Z,0
2023-03-06T00:08:31.183Z,0
2023-03-06T00:09:11.721Z,0
2023-03-06T00:15:57.077Z,0
2023-03-06T00:16:37.686Z,0
2023-03-06T00:17:18.134Z,0
2023-03-06T00:17:58.676Z,0
2023-03-06T00:18:39.208Z,0
2023-03-06T00:19:19.725Z,0
2023-03-06T00:20:00.239Z,0
2023-03-06T00:20:41.007Z,0
2023-03-06T00:21:21.493Z,0
2023-03-06T00:24:15.947Z,0
2023-03-06T00:24:56.514Z,0
2023-03-06T00:25:37.026Z,0
2023-03-06T00:26:17.539Z,0
2023-03-06T00:29:40.186Z,0
2023-03-06T00:30:20.711Z,0
2023-03-06T00:31:01.249Z,0
2023-03-06T00:31:41.859Z,0
2023-03-06T00:32:22.375Z,0
2023-03-06T00:33:02.845Z,0
2023-03-06T00:33:43.358Z,0
2023-03-06T00:34:23.874Z,0
2023-03-06T00:35:04.401Z,0
2023-03-06T00:38:38.478Z,0
2023-03-06T00:39:19.030Z,0
2023-03-06T00:39:59.544Z,0
2023-03-06T00:40:40.058Z,0
2023-03-06T00:44:43.896Z,0
2023-03-06T00:45:25.000Z,0
2023-03-06T00:46:05.606Z,0
2023-03-06T00:46:46.007Z,0
2023-03-06T00:47:26.594Z,0
2023-03-06T00:48:07.125Z,0
2023-03-06T00:48:47.632Z,0
2023-03-06T00:56:13.426Z,0
2023-03-06T00:56:53.929Z,0
2023-03-06T00:57:34.455Z,0
2023-03-06T00:58:14.961Z,0
2023-03-06T00:58:55.481Z,0
2023-03-06T00:59:35.997Z,0
2023-03-06T01:00:16.515Z,0
2023-03-06T01:00:57.050Z,0
2023-03-06T01:01:37.557Z,0
2023-03-06T01:02:18.112Z,0
2023-03-06T01:09:14.810Z,0
2023-03-06T01:09:56.333Z,0
2023-03-06T01:10:38.507Z,0
2023-03-06T01:11:19.020Z,0
2023-03-06T01:11:59.573Z,0
2023-03-06T01:12:40.124Z,0
2023-03-06T01:13:20.667Z,0
2023-03-06T01:15:59.184Z,0
2023-03-06T01:16:39.794Z,0
2023-03-06T01:17:20.295Z,0
2023-03-06T01:18:00.868Z,0
2023-03-06T01:20:54.512Z,0
2023-03-06T01:21:35.064Z,0
2023-03-06T01:22:15.558Z,0
2023-03-06T01:22:56.148Z,0
2023-03-06T01:25:57.927Z,0
2023-03-06T01:26:38.468Z,0
2023-03-06T01:27:18.961Z,0
2023-03-06T01:27:59.472Z,0
2023-03-06T01:32:03.615Z,0
2023-03-06T01:32:44.053Z,0
2023-03-06T01:33:24.596Z,0
2023-03-06T01:34:05.144Z,0
2023-03-06T01:34:45.651Z,0
2023-03-06T01:35:26.274Z,0
2023-03-06T01:36:06.681Z,0
2023-03-06T01:36:47.205Z,0
2023-03-06T01:39:40.475Z,0
2023-03-06T01:40:20.990Z,0
2023-03-06T01:41:01.528Z,0
2023-03-06T01:41:42.071Z,0
2023-03-06T01:44:11.797Z,0
2023-03-06T01:44:52.327Z,0
2023-03-06T01:45:33.470Z,0
2023-03-06T01:46:14.635Z,0
2023-03-06T01:48:57.012Z,0
2023-03-06T01:49:37.536Z,0
2023-03-06T01:50:18.083Z,0
2023-03-06T01:50:58.604Z,0
2023-03-06T01:51:39.155Z,0
2023-03-06T01:52:19.732Z,0
2023-03-06T01:53:00.188Z,0
2023-03-06T01:53:40.710Z,0
2023-03-06T01:54:22.928Z,0
2023-03-06T01:58:13.717Z,0
2023-03-06T01:58:54.233Z,0
2023-03-06T01:59:34.748Z,0
2023-03-06T02:00:15.287Z,0
2023-03-06T02:02:35.013Z,0
2023-03-06T02:03:15.382Z,0
2023-03-06T02:03:55.927Z,0
2023-03-06T02:04:36.426Z,0
2023-03-06T02:06:49.482Z,0
2023-03-06T02:07:30.050Z,0
2023-03-06T02:08:10.526Z,0
2023-03-06T02:08:51.025Z,0
2023-03-06T02:12:54.089Z,0
2023-03-06T02:13:34.609Z,0
2023-03-06T02:14:15.127Z,0
2023-03-06T02:14:55.641Z,0
2023-03-06T02:15:36.136Z,0
2023-03-06T02:16:17.460Z,0
2023-03-06T02:16:57.865Z,0
2023-03-06T02:17:38.363Z,0
2023-03-06T02:23:56.421Z,0
2023-03-06T02:24:36.935Z,0
2023-03-06T02:25:17.451Z,0
2023-03-06T02:25:58.926Z,0
2023-03-06T02:28:01.509Z,0
2023-03-06T02:28:42.978Z,0
2023-03-06T02:29:23.520Z,0
2023-03-06T02:30:04.040Z,0
2023-03-06T02:30:44.549Z,0
2023-03-06T02:31:25.069Z,0
2023-03-06T02:32:05.692Z,0
2023-03-06T02:36:11.049Z,0
2023-03-06T02:36:51.558Z,0
2023-03-06T02:37:32.078Z,0
2023-03-06T02:38:12.625Z,0
2023-03-06T02:38:53.148Z,0
2023-03-06T02:39:33.690Z,0
2023-03-06T02:40:14.177Z,0
2023-03-06T02:40:54.699Z,0
2023-03-06T02:41:35.233Z,0
2023-03-06T02:42:15.725Z,0
2023-03-06T02:49:41.443Z,0
2023-03-06T02:50:21.964Z,0
2023-03-06T02:51:02.483Z,0
2023-03-06T02:53:40.960Z,0
2023-03-06T02:54:22.636Z,0
2023-03-06T02:55:03.176Z,0
2023-03-06T02:55:43.669Z,0
2023-03-06T02:57:05.655Z,0
2023-03-06T02:57:46.161Z,0
2023-03-06T03:00:24.605Z,0
2023-03-06T03:01:05.801Z,0
2023-03-06T03:01:46.430Z,0
2023-03-06T03:02:27.700Z,0
2023-03-06T03:03:50.380Z,0
2023-03-06T03:04:30.990Z,0
2023-03-06T03:07:09.460Z,0
2023-03-06T03:07:50.813Z,0
2023-03-06T03:08:31.330Z,0
2023-03-06T03:09:11.842Z,0
2023-03-06T03:11:54.530Z,0
2023-03-06T03:12:35.040Z,0
2023-03-06T03:13:15.563Z,0
2023-03-06T03:13:56.094Z,0
2023-03-06T03:14:36.595Z,0
2023-03-06T03:15:17.127Z,0
2023-03-06T03:15:57.659Z,0
2023-03-06T03:16:39.226Z,0
2023-03-06T03:23:25.193Z,0
2023-03-06T03:24:05.727Z,0
2023-03-06T03:24:46.286Z,0
2023-03-06T03:25:26.779Z,0
2023-03-06T03:26:07.320Z,0
2023-03-06T03:26:47.812Z,0
2023-03-06T03:27:28.338Z,0
2023-03-06T03:32:30.342Z,0
2023-03-06T03:33:10.796Z,0
2023-03-06T03:33:51.923Z,0
2023-03-06T03:34:32.433Z,0
2023-03-06T03:36:52.120Z,0
2023-03-06T03:37:32.623Z,0
2023-03-06T03:38:14.192Z,0
2023-03-06T03:38:54.644Z,0
2023-03-06T03:41:36.919Z,0
2023-03-06T03:42:17.418Z,0
2023-03-06T03:42:57.938Z,0
2023-03-06T03:43:38.441Z,0
2023-03-06T03:44:19.425Z,0
2023-03-06T03:44:59.981Z,0
2023-03-06T03:45:40.506Z,0
2023-03-06T03:47:53.550Z,0
2023-03-06T03:48:34.053Z,0
2023-03-06T03:49:15.279Z,0
2023-03-06T03:49:55.799Z,0
2023-03-06T03:51:18.483Z,0
2023-03-06T03:51:59.007Z,0
2023-03-06T03:52:40.394Z,0
2023-03-06T03:53:22.211Z,0
2023-03-06T03:56:10.129Z,0
2023-03-06T03:56:50.652Z,0
2023-03-06T03:57:31.151Z,0
2023-03-06T03:58:11.789Z,0
2023-03-06T03:58:52.310Z,0
2023-03-06T03:59:32.821Z,0
2023-03-06T04:07:53.203Z,0
2023-03-06T04:08:34.200Z,0
2023-03-06T04:09:18.229Z,0
2023-03-06T04:10:00.327Z,0
2023-03-06T04:12:28.593Z,0
2023-03-06T04:13:10.106Z,0
2023-03-06T04:13:49.581Z,0
2023-03-06T04:14:30.122Z,0
2023-03-06T04:16:43.192Z,0
2023-03-06T04:17:24.262Z,0
2023-03-06T04:18:04.742Z,0
2023-03-06T04:18:45.264Z,0
2023-03-06T04:21:39.526Z,0
2023-03-06T04:22:20.072Z,0
2023-03-06T04:23:00.571Z,0
2023-03-06T04:23:42.049Z,0
2023-03-06T04:25:55.750Z,0
2023-03-06T04:26:36.762Z,0
2023-03-06T04:27:17.274Z,0
2023-03-06T04:29:57.231Z,0
2023-03-06T04:30:37.740Z,0
2023-03-06T04:31:18.304Z,0
2023-03-06T04:31:58.828Z,0
2023-03-06T04:34:33.029Z,0
2023-03-06T04:35:13.552Z,0
2023-03-06T04:35:54.135Z,0
2023-03-06T04:36:34.613Z,0
2023-03-06T04:40:37.757Z,0
2023-03-06T04:41:18.267Z,0
2023-03-06T04:41:58.801Z,0
2023-03-06T04:42:39.320Z,0
2023-03-06T04:43:19.845Z,0
2023-03-06T04:44:00.371Z,0
2023-03-06T04:44:40.884Z,0
2023-03-06T04:45:21.433Z,0
2023-03-06T04:47:59.847Z,0
2023-03-06T04:48:40.361Z,0
2023-03-06T04:49:20.886Z,0
2023-03-06T04:50:01.399Z,0
2023-03-06T04:54:04.581Z,0
2023-03-06T04:54:45.101Z,0
2023-03-06T04:55:25.603Z,0
2023-03-06T04:56:06.124Z,0
2023-03-06T04:56:46.661Z,0
2023-03-06T04:57:27.852Z,0
2023-03-06T04:58:09.034Z,0
2023-03-06T05:02:05.575Z,0
2023-03-06T05:02:46.098Z,0
2023-03-06T05:03:26.614Z,0
2023-03-06T05:04:07.126Z,0
2023-03-06T05:08:10.300Z,0
2023-03-06T05:08:51.748Z,0
2023-03-06T05:09:32.294Z,0
2023-03-06T05:10:12.835Z,0
2023-03-06T05:12:51.488Z,0
2023-03-06T05:13:31.949Z,0
2023-03-06T05:14:12.458Z,0
2023-03-06T05:14:54.000Z,0
2023-03-06T05:17:36.104Z,0
2023-03-06T05:18:16.582Z,0
2023-03-06T05:18:57.104Z,0
2023-03-06T05:19:37.629Z,0
2023-03-06T05:20:18.152Z,0
2023-03-06T05:20:58.705Z,0
2023-03-06T05:21:39.239Z,0
2023-03-06T05:22:19.793Z,0
2023-03-06T05:23:00.362Z,0
2023-03-06T05:23:40.879Z,0
2023-03-06T05:30:44.885Z,0
2023-03-06T05:31:27.402Z,0
2023-03-06T05:32:13.490Z,0
2023-03-06T05:34:48.410Z,0
2023-03-06T05:35:28.904Z,0
2023-03-06T05:36:09.398Z,0
2023-03-06T05:36:49.886Z,0
2023-03-06T05:41:33.357Z,0
2023-03-06T05:42:13.858Z,0
2023-03-06T05:42:54.347Z,0
2023-03-06T05:43:34.830Z,0
2023-03-06T05:44:15.335Z,0
2023-03-06T05:44:55.856Z,0
2023-03-06T05:45:36.336Z,0
2023-03-06T05:46:16.862Z,0
2023-03-06T05:48:55.269Z,0
2023-03-06T05:49:35.775Z,0
2023-03-06T05:50:16.322Z,0
2023-03-06T05:50:56.811Z,0
2023-03-06T05:54:59.939Z,0
2023-03-06T05:55:40.494Z,0
2023-03-06T05:56:20.993Z,0
2023-03-06T05:57:01.528Z,0
2023-03-06T05:57:42.048Z,0
2023-03-06T05:58:22.562Z,0
2023-03-06T05:59:03.066Z,0
2023-03-06T05:59:43.594Z,0
2023-03-06T06:00:24.129Z,0
2023-03-06T06:01:05.340Z,0
2023-03-06T06:06:30.840Z,0
2023-03-06T06:07:11.357Z,0
2023-03-06T06:07:52.661Z,0
2023-03-06T06:08:33.175Z,0
2023-03-06T06:09:14.028Z,0
2023-03-06T06:09:54.208Z,0
2023-03-06T06:10:34.726Z,0
2023-03-06T06:16:00.331Z,0
2023-03-06T06:16:40.781Z,0
2023-03-06T06:17:21.309Z,0
2023-03-06T06:18:01.843Z,0
2023-03-06T06:18:42.383Z,5
2023-03-06T06:19:22.876Z,5
2023-03-06T06:20:03.396Z,5
2023-03-06T06:20:43.967Z,5
2023-03-06T06:21:24.516Z,5
2023-03-06T06:26:20.076Z,5
2023-03-06T06:27:03.377Z,5
2023-03-06T06:27:41.091Z,5
2023-03-06T06:28:21.616Z,5
2023-03-06T06:31:45.147Z,5
2023-03-06T06:32:25.706Z,10
2023-03-06T06:33:06.159Z,10
2023-03-06T06:33:46.701Z,10
2023-03-06T06:34:27.198Z,10
2023-03-06T06:35:07.716Z,10
2023-03-06T06:35:48.306Z,10
2023-03-06T06:36:28.841Z,10
2023-03-06T06:37:09.350Z,10
2023-03-06T06:42:09.893Z,15
2023-03-06T06:42:39.632Z,15
2023-03-06T06:43:15.772Z,15
2023-03-06T06:46:02.370Z,15
2023-03-06T06:47:21.090Z,15
2023-03-06T06:47:22.663Z,15
2023-03-06T06:47:56.171Z,15
2023-03-06T06:51:19.042Z,15
2023-03-06T06:51:59.619Z,15
2023-03-06T06:52:40.194Z,15
2023-03-06T06:53:20.743Z,15
2023-03-06T06:54:01.282Z,15
2023-03-06T06:54:41.832Z,15
2023-03-06T06:55:22.344Z,15
2023-03-06T06:56:02.927Z,15
2023-03-06T06:56:43.419Z,15
2023-03-06T07:02:09.233Z,15
2023-03-06T07:02:49.780Z,15
2023-03-06T07:03:30.322Z,15
2023-03-06T07:04:10.879Z,15
2023-03-06T07:05:02.907Z,15
2023-03-06T07:05:31.886Z,15
2023-03-06T07:06:12.396Z,20
2023-03-06T07:06:52.911Z,20
2023-03-06T07:09:31.427Z,20
2023-03-06T07:10:11.963Z,25
2023-03-06T07:10:52.491Z,25
2023-03-06T07:11:32.990Z,25
2023-03-06T07:14:56.420Z,30
2023-03-06T07:15:36.973Z,30
2023-03-06T07:16:17.518Z,35
2023-03-06T07:16:58.013Z,35
2023-03-06T07:17:38.631Z,35
2023-03-06T07:18:19.679Z,40
2023-03-06T07:19:00.188Z,40
2023-03-06T07:19:40.702Z,45
2023-03-06T07:25:31.635Z,50
2023-03-06T07:26:12.176Z,50
2023-03-06T07:26:52.696Z,50
2023-03-06T07:27:33.228Z,50
2023-03-06T07:30:16.706Z,50
2023-03-06T07:30:57.259Z,50
2023-03-06T07:31:37.783Z,50
2023-03-06T07:32:18.325Z,50
2023-03-06T07:32:58.788Z,50
2023-03-06T07:33:39.265Z,55
2023-03-06T07:34:20.629Z,55
2023-03-06T07:35:18.900Z,55
2023-03-06T07:40:26.753Z,60
2023-03-06T07:42:40.251Z,60
2023-03-06T07:43:20.730Z,55
2023-03-06T07:44:01.231Z,60
2023-03-06T07:44:41.734Z,55
2023-03-06T07:47:15.697Z,50
2023-03-06T07:47:57.054Z,45
2023-03-06T07:48:37.704Z,45
2023-03-06T07:49:25.734Z,45
2023-03-06T07:51:39.575Z,55
2023-03-06T07:52:20.464Z,60
2023-03-06T07:53:01.029Z,60
2023-03-06T07:53:43.179Z,65
2023-03-06T07:56:11.449Z,70
2023-03-06T07:56:51.954Z,70
2023-03-06T07:57:32.454Z,70
2023-03-06T07:58:13.023Z,65
2023-03-06T08:00:56.376Z,70
2023-03-06T08:01:36.906Z,70
2023-03-06T08:02:17.429Z,70
2023-03-06T08:02:57.962Z,70
2023-03-06T08:03:38.506Z,65
2023-03-06T08:04:19.044Z,65
2023-03-06T08:04:59.585Z,65
2023-03-06T08:05:40.101Z,65
2023-03-06T08:06:20.737Z,65
2023-03-06T08:13:06.125Z,65
2023-03-06T08:13:46.667Z,65
2023-03-06T08:14:27.208Z,65
2023-03-06T08:15:08.554Z,65
2023-03-06T08:15:49.060Z,65
2023-03-06T08:16:29.688Z,65
2023-03-06T08:17:10.072Z,65
2023-03-06T08:17:50.607Z,65
2023-03-06T08:22:49.832Z,70
2023-03-06T08:23:30.375Z,70
2023-03-06T08:24:11.778Z,70
2023-03-06T08:24:55.067Z,75
2023-03-06T08:27:09.504Z,75
2023-03-06T08:27:50.022Z,75
2023-03-06T08:28:30.729Z,75
2023-03-06T08:29:11.291Z,75
2023-03-06T08:31:13.778Z,75
2023-03-06T08:31:54.215Z,75
2023-03-06T08:32:34.727Z,75
2023-03-06T08:33:15.300Z,80
2023-03-06T08:33:56.716Z,80
2023-03-06T08:34:37.254Z,80
2023-03-06T08:35:17.804Z,75
2023-03-06T08:42:03.270Z,90
2023-03-06T08:42:43.980Z,85
2023-03-06T08:43:24.508Z,85
2023-03-06T08:46:03.041Z,90
2023-03-06T08:46:43.449Z,95
2023-03-06T08:47:24.035Z,95
2023-03-06T08:48:04.575Z,100
2023-03-06T08:52:07.775Z,120
2023-03-06T08:52:48.312Z,120
2023-03-06T08:53:41.971Z,125
2023-03-06T08:54:09.383Z,125
2023-03-06T08:54:49.949Z,125
2023-03-06T08:55:30.458Z,130
2023-03-06T08:56:10.981Z,125
2023-03-06T08:56:52.044Z,125
2023-03-06T08:57:32.549Z,125
2023-03-06T09:04:17.940Z,110
2023-03-06T09:04:58.447Z,110
2023-03-06T09:05:38.961Z,110
2023-03-06T09:06:19.543Z,110
2023-03-06T09:07:00.092Z,110
2023-03-06T09:07:40.636Z,110
2023-03-06T09:08:21.164Z,110
2023-03-06T09:10:59.746Z,115
2023-03-06T09:11:40.232Z,115
2023-03-06T09:12:20.780Z,115
2023-03-06T09:13:01.335Z,120
2023-03-06T09:17:04.626Z,135
2023-03-06T09:17:45.197Z,135
2023-03-06T09:18:25.829Z,135
2023-03-06T09:19:06.349Z,135
2023-03-06T09:19:46.868Z,135
2023-03-06T09:20:27.387Z,135
2023-03-06T09:21:07.916Z,135
2023-03-06T09:21:48.531Z,135
2023-03-06T09:22:29.043Z,135
2023-03-06T09:28:08.933Z,125
2023-03-06T09:28:34.929Z,125
2023-03-06T09:29:15.479Z,130
2023-03-06T09:29:56.731Z,130
2023-03-06T09:30:38.094Z,130
2023-03-06T09:31:18.657Z,135
2023-03-06T09:31:59.113Z,135
2023-03-06T09:38:44.479Z,130
2023-03-06T09:39:25.030Z,130
2023-03-06T09:43:06.910Z,135
2023-03-06T09:43:47.440Z,135
2023-03-06T09:44:27.982Z,140
2023-03-06T09:45:08.519Z,150
2023-03-06T09:48:43.898Z,170
2023-03-06T09:49:24.381Z,170
2023-03-06T09:50:06.165Z,175
2023-03-06T09:50:47.605Z,175
2023-03-06T09:53:02.138Z,170
2023-03-06T09:53:42.681Z,170
2023-03-06T09:54:23.222Z,170
2023-03-06T09:55:03.736Z,170
2023-03-06T09:59:18.450Z,175
2023-03-06T09:59:59.015Z,175
2023-03-06T10:00:41.073Z,175
2023-03-06T10:01:23.008Z,175
2023-03-06T10:03:36.606Z,175
2023-03-06T10:04:17.169Z,175
2023-03-06T10:04:57.705Z,175
2023-03-06T10:05:38.211Z,180
2023-03-06T10:09:41.407Z,180
2023-03-06T10:10:21.906Z,180
2023-03-06T10:11:02.442Z,175
2023-03-06T10:11:42.964Z,175
2023-03-06T10:12:24.735Z,180
2023-03-06T10:13:04.042Z,180
2023-03-06T10:13:44.572Z,180
2023-03-06T10:14:25.115Z,180
2023-03-06T10:15:05.650Z,180
2023-03-06T10:15:46.182Z,185
2023-03-06T10:21:51.464Z,195
2023-03-06T10:22:31.972Z,205
2023-03-06T10:23:12.514Z,205
2023-03-06T10:23:53.963Z,215
2023-03-06T10:24:35.480Z,220
2023-03-06T10:25:16.033Z,230
2023-03-06T10:29:30.408Z,280
2023-03-06T10:30:10.960Z,285
2023-03-06T10:30:51.479Z,290
2023-03-06T10:33:30.371Z,325
2023-03-06T10:34:10.947Z,330
2023-03-06T10:34:51.505Z,340
2023-03-06T10:35:32.037Z,350
2023-03-06T10:39:35.209Z,355
2023-03-06T10:40:15.741Z,350
2023-03-06T10:40:56.268Z,350
2023-03-06T10:41:36.837Z,350
2023-03-06T10:42:17.929Z,345
2023-03-06T10:43:10.742Z,340
2023-03-06T10:43:38.963Z,335
2023-03-06T10:44:19.495Z,325
2023-03-06T10:45:00.048Z,325
2023-03-06T10:51:45.429Z,300
2023-03-06T10:52:25.930Z,300
2023-03-06T10:53:06.473Z,295
2023-03-06T10:53:47.001Z,295
2023-03-06T10:54:27.802Z,300
2023-03-06T10:55:08.340Z,295
2023-03-06T10:55:48.890Z,300
2023-03-06T10:56:29.410Z,305
2023-03-06T10:57:09.973Z,305
2023-03-06T11:03:15.471Z,285
2023-03-06T11:03:55.988Z,295
2023-03-06T11:04:36.608Z,300
2023-03-06T11:05:17.061Z,300
2023-03-06T11:07:57.576Z,315
2023-03-06T11:08:38.077Z,315
2023-03-06T11:09:20.191Z,320
2023-03-06T11:10:02.555Z,320
2023-03-06T11:12:31.678Z,330
2023-03-06T11:13:12.202Z,330
2023-03-06T11:13:53.250Z,330
2023-03-06T11:14:34.755Z,325
2023-03-06T11:16:58.070Z,325
2023-03-06T11:17:39.425Z,315
2023-03-06T11:18:20.637Z,310
2023-03-06T11:19:02.705Z,305
2023-03-06T11:21:31.943Z,300
2023-03-06T11:22:12.311Z,315
2023-03-06T11:22:52.827Z,325
2023-03-06T11:23:33.377Z,335
2023-03-06T11:25:35.884Z,350
2023-03-06T11:26:16.400Z,360
2023-03-06T11:26:56.893Z,365
2023-03-06T11:27:37.401Z,375
2023-03-06T11:28:18.495Z,380
2023-03-06T11:28:59.109Z,380
2023-03-06T11:29:39.625Z,385
2023-03-06T11:30:20.079Z,385
2023-03-06T11:31:00.602Z,385
2023-03-06T11:37:45.922Z,390
2023-03-06T11:38:26.453Z,380
2023-03-06T11:39:07.074Z,370
2023-03-06T11:39:47.514Z,360
2023-03-06T11:40:28.028Z,345
2023-03-06T11:41:08.582Z,335
2023-03-06T11:41:49.136Z,330
2023-03-06T11:42:29.666Z,330
2023-03-06T11:43:10.199Z,325
2023-03-06T11:46:03.832Z,325
2023-03-06T11:46:44.396Z,340
2023-03-06T11:47:24.905Z,355
2023-03-06T11:48:05.435Z,365
2023-03-06T11:50:48.455Z,335
2023-03-06T11:51:28.997Z,335
2023-03-06T11:52:09.509Z,325
2023-03-06T11:52:50.306Z,315
2023-03-06T11:53:30.636Z,305
2023-03-06T11:54:11.192Z,295
2023-03-06T11:54:51.734Z,285
2023-03-06T11:55:32.256Z,280
2023-03-06T11:56:12.810Z,295
2023-03-06T11:56:53.359Z,310
2023-03-06T11:59:46.961Z,320
2023-03-06T12:00:27.487Z,320
2023-03-06T12:01:08.013Z,325
2023-03-06T12:01:48.556Z,310
2023-03-06T12:05:51.704Z,325
2023-03-06T12:06:32.242Z,330
2023-03-06T12:07:12.761Z,335
2023-03-06T12:09:25.848Z,335
2023-03-06T12:10:07.311Z,325
2023-03-06T12:10:51.313Z,300
2023-03-06T12:11:29.177Z,275
2023-03-06T12:15:03.036Z,225
2023-03-06T12:15:43.586Z,220
2023-03-06T12:16:24.223Z,220
2023-03-06T12:17:04.680Z,205
2023-03-06T12:21:07.893Z,160
2023-03-06T12:21:48.391Z,145
2023-03-06T12:22:31.029Z,145
2023-03-06T12:23:15.193Z,165
2023-03-06T12:23:50.079Z,200
2023-03-06T12:24:30.574Z,215
2023-03-06T12:25:11.049Z,235
2023-03-06T12:25:51.547Z,255
2023-03-06T12:26:32.108Z,280
2023-03-06T12:27:12.627Z,310
2023-03-06T12:33:57.819Z,255
2023-03-06T12:34:38.318Z,260
2023-03-06T12:35:18.930Z,275
2023-03-06T12:35:59.384Z,275
2023-03-06T12:36:39.932Z,270
2023-03-06T12:37:20.419Z,255
2023-03-06T12:38:01.515Z,240
2023-03-06T12:42:23.655Z,130
2023-03-06T12:43:02.143Z,115
2023-03-06T12:43:42.643Z,105
2023-03-06T12:44:23.186Z,95
2023-03-06T12:48:26.327Z,95
2023-03-06T12:49:06.841Z,90
2023-03-06T12:49:47.579Z,85
2023-03-06T12:50:28.572Z,90
2023-03-06T12:51:09.123Z,105
2023-03-06T12:51:49.667Z,125
2023-03-06T12:52:30.756Z,145
2023-03-06T12:53:10.765Z,175
2023-03-06T13:00:36.641Z,235
2023-03-06T13:01:17.195Z,250
2023-03-06T13:01:57.664Z,235
2023-03-06T13:02:38.214Z,205
2023-03-06T13:03:18.715Z,170
2023-03-06T13:03:59.260Z,135
2023-03-06T13:04:39.771Z,115
2023-03-06T13:05:20.287Z,105
2023-03-06T13:10:46.221Z,65
2023-03-06T13:13:31.737Z,135
2023-03-06T13:14:14.088Z,120
2023-03-06T13:14:56.320Z,100
2023-03-06T13:18:34.686Z,120
2023-03-06T13:19:15.198Z,105
2023-03-06T13:19:55.704Z,105
2023-03-06T13:20:36.220Z,110
2023-03-06T13:23:59.471Z,90
2023-03-06T13:24:40.031Z,95
2023-03-06T13:25:20.622Z,100
2023-03-06T13:26:01.129Z,105
2023-03-06T13:26:41.662Z,105
2023-03-06T13:27:22.209Z,110
2023-03-06T13:28:02.761Z,105
2023-03-06T13:28:43.394Z,100
2023-03-06T13:29:23.858Z,90
2023-03-06T13:36:09.374Z,85
2023-03-06T13:36:49.886Z,90
2023-03-06T13:37:30.432Z,90
2023-03-06T13:38:10.979Z,85
2023-03-06T13:38:51.773Z,75
2023-03-06T13:39:32.032Z,70
2023-03-06T13:40:12.573Z,70
2023-03-06T13:40:53.112Z,75
2023-03-06T13:41:33.629Z,80
2023-03-06T13:42:14.143Z,85
2023-03-06T13:48:41.459Z,80
2023-03-06T13:49:00.000Z,85
2023-03-06T13:49:40.549Z,85
2023-03-06T13:50:21.090Z,80
2023-03-06T13:53:01.697Z,85
2023-03-06T13:53:42.278Z,85
2023-03-06T13:54:22.833Z,80
2023-03-06T13:55:03.292Z,80
2023-03-06T13:57:16.328Z,80
2023-03-06T13:57:56.863Z,90
2023-03-06T13:58:37.376Z,95
2023-03-06T13:59:17.922Z,105
2023-03-06T14:01:30.840Z,110
2023-03-06T14:02:11.234Z,115
2023-03-06T14:02:51.914Z,115
2023-03-06T14:05:30.252Z,140
2023-03-06T14:06:10.825Z,130
2023-03-06T14:06:51.381Z,115
2023-03-06T14:07:31.982Z,105
2023-03-06T14:11:35.071Z,140
2023-03-06T14:12:15.516Z,140
2023-03-06T14:12:56.030Z,140
2023-03-06T14:13:45.411Z,135
2023-03-06T14:14:17.134Z,125
2023-03-06T14:14:57.716Z,115
2023-03-06T14:17:31.862Z,170
2023-03-06T14:18:12.347Z,185
2023-03-06T14:18:52.837Z,190
2023-03-06T14:19:33.349Z,195
2023-03-06T14:22:55.940Z,160
2023-03-06T14:23:37.248Z,150
2023-03-06T14:24:17.783Z,150
2023-03-06T14:24:58.272Z,160
2023-03-06T14:25:38.775Z,155
2023-03-06T14:26:19.294Z,150
2023-03-06T14:27:00.496Z,145
2023-03-06T14:32:10.650Z,130
2023-03-06T14:32:51.122Z,130
2023-03-06T14:33:31.628Z,125
2023-03-06T14:34:12.156Z,125
2023-03-06T14:38:15.300Z,110
2023-03-06T14:38:55.824Z,110
2023-03-06T14:39:36.352Z,115
2023-03-06T14:42:14.995Z,120
2023-03-06T14:42:56.115Z,120
2023-03-06T14:43:36.580Z,120
2023-03-06T14:44:17.119Z,120
2023-03-06T14:47:39.798Z,115
2023-03-06T14:48:20.362Z,120
2023-03-06T14:49:00.874Z,125
2023-03-06T14:49:41.372Z,125
2023-03-06T14:50:21.953Z,125
2023-03-06T14:53:00.611Z,135
2023-03-06T14:53:41.317Z,130
2023-03-06T14:54:21.841Z,135
2023-03-06T14:55:02.387Z,140
2023-03-06T14:59:05.590Z,135
2023-03-06T14:59:46.144Z,135
2023-03-06T15:00:27.330Z,135
2023-03-06T15:01:07.836Z,130
2023-03-06T15:03:46.040Z,95
2023-03-06T15:04:26.493Z,95
2023-03-06T15:05:07.027Z,105
2023-03-06T15:05:47.553Z,115
2023-03-06T15:09:10.880Z,115
2023-03-06T15:11:49.330Z,135
2023-03-06T15:12:29.844Z,130
2023-03-06T15:13:10.362Z,130
2023-03-06T15:13:50.920Z,125
2023-03-06T15:17:54.035Z,105
2023-03-06T15:18:34.562Z,100
2023-03-06T15:19:15.093Z,95
2023-03-06T15:19:55.573Z,90
2023-03-06T15:20:36.075Z,90
2023-03-06T15:21:16.604Z,90
2023-03-06T15:21:57.107Z,90
2023-03-06T15:22:37.676Z,95
2023-03-06T15:23:18.215Z,95
2023-03-06T15:23:58.704Z,100
2023-03-06T15:30:04.170Z,80
2023-03-06T15:30:44.678Z,80
2023-03-06T15:31:25.242Z,75
2023-03-06T15:34:03.740Z,70
2023-03-06T15:34:44.267Z,70
2023-03-06T15:35:25.569Z,70
2023-03-06T15:36:06.016Z,75
2023-03-06T15:38:49.002Z,70
2023-03-06T15:39:29.505Z,75
2023-03-06T15:40:10.068Z,75
2023-03-06T15:40:51.126Z,80
2023-03-06T15:41:31.675Z,80
2023-03-06T15:42:12.196Z,80
2023-03-06T15:42:52.752Z,80
2023-03-06T15:43:33.266Z,80
2023-03-06T15:47:12.446Z,75
2023-03-06T15:47:54.438Z,80
2023-03-06T15:48:35.600Z,85
2023-03-06T15:49:16.078Z,90
2023-03-06T15:51:29.213Z,90
2023-03-06T15:52:09.778Z,90
2023-03-06T15:52:50.271Z,90
2023-03-06T15:53:30.824Z,85
2023-03-06T15:57:33.826Z,65
2023-03-06T15:58:14.386Z,65
2023-03-06T15:58:54.863Z,60
2023-03-06T15:59:35.413Z,55
2023-03-06T16:00:26.819Z,55
2023-03-06T16:00:56.534Z,55
2023-03-06T16:01:37.468Z,55
2023-03-06T16:02:17.571Z,55
2023-03-06T16:02:58.117Z,55
2023-03-06T16:03:38.631Z,55
2023-03-06T16:09:03.850Z,60
2023-03-06T16:09:44.353Z,60
2023-03-06T16:10:24.910Z,60
2023-03-06T16:11:05.420Z,60
2023-03-06T16:11:46.741Z,60
2023-03-06T16:12:27.289Z,55
2023-03-06T16:13:07.841Z,55
2023-03-06T16:13:48.390Z,55
2023-03-06T16:21:14.221Z,50
2023-03-06T16:21:55.391Z,45
2023-03-06T16:22:35.967Z,45
2023-03-06T16:23:16.482Z,45
2023-03-06T16:23:56.985Z,45
2023-03-06T16:24:37.507Z,40
2023-03-06T16:25:18.025Z,40
2023-03-06T16:25:58.610Z,35
2023-03-06T16:28:51.913Z,25
2023-03-06T16:29:33.101Z,25
2023-03-06T16:30:14.195Z,25
2023-03-06T16:30:54.774Z,20
2023-03-06T16:33:13.011Z,20
2023-03-06T16:33:53.524Z,20
2023-03-06T16:34:35.911Z,15
2023-03-06T16:35:16.391Z,15
2023-03-06T16:37:18.033Z,15
2023-03-06T16:37:58.553Z,15
2023-03-06T16:38:39.909Z,15
2023-03-06T16:39:20.415Z,15
2023-03-06T16:40:00.932Z,15
2023-03-06T16:40:41.630Z,15
2023-03-06T16:41:21.953Z,15
2023-03-06T16:42:02.917Z,15
2023-03-06T16:48:08.410Z,20
2023-03-06T16:48:50.415Z,15
2023-03-06T16:49:31.025Z,15
2023-03-06T16:50:11.449Z,15
2023-03-06T16:52:50.781Z,20
2023-03-06T16:53:31.351Z,20
2023-03-06T16:54:13.493Z,20
2023-03-06T16:54:54.897Z,20
2023-03-06T16:57:14.242Z,15
2023-03-06T16:57:54.810Z,15
2023-03-06T16:58:35.399Z,15
2023-03-06T16:59:16.065Z,15
2023-03-06T17:03:30.909Z,10
2023-03-06T17:04:11.435Z,5
2023-03-06T17:04:51.949Z,5
2023-03-06T17:05:32.485Z,5
2023-03-06T17:09:47.230Z,5
2023-03-06T17:10:27.725Z,0
2023-03-06T17:11:08.217Z,0
2023-03-06T17:11:49.342Z,0
2023-03-06T17:14:32.224Z,0
2023-03-06T17:15:12.751Z,0
2023-03-06T17:15:53.269Z,0
2023-03-06T17:16:33.779Z,0
2023-03-06T17:17:14.289Z,0
2023-03-06T17:17:54.807Z,0
2023-03-06T17:18:35.305Z,0
2023-03-06T17:19:15.864Z,0
2023-03-06T17:21:58.526Z,0
2023-03-06T17:22:39.088Z,0
2023-03-06T17:23:19.606Z,0
2023-03-06T17:25:58.112Z,0
2023-03-06T17:26:39.618Z,0
2023-03-06T17:27:22.788Z,0
2023-03-06T17:28:03.327Z,0
2023-03-06T17:30:33.300Z,0
2023-03-06T17:31:16.905Z,0
2023-03-06T17:31:59.225Z,0
2023-03-06T17:32:43.341Z,0
2023-03-06T17:35:14.454Z,0
2023-03-06T17:35:55.577Z,0
2023-03-06T17:36:37.794Z,0
2023-03-06T17:37:18.383Z,0
2023-03-06T17:37:58.833Z,0
2023-03-06T17:38:39.358Z,0
2023-03-06T17:41:15.424Z,0
2023-03-06T17:41:57.390Z,0
2023-03-06T17:42:38.505Z,0
2023-03-06T17:43:20.897Z,0
2023-03-06T17:45:37.253Z,0
2023-03-06T17:46:19.344Z,0
2023-03-06T17:46:59.839Z,0